createdAt,value
2018-05-23T00:02:00.821Z,10.90
2018-05-23T00:04:35.322Z,10.90
2018-05-23T00:07:09.951Z,10.90
2018-05-23T00:09:44.504Z,10.80
2018-05-23T00:12:19.109Z,10.80
2018-05-23T00:14:53.752Z,10.70
2018-05-23T00:17:28.323Z,10.70
2018-05-23T00:20:02.891Z,10.70
2018-05-23T00:22:37.479Z,10.80
2018-05-23T00:25:12.050Z,10.70
2018-05-23T00:27:46.562Z,10.60
2018-05-23T00:30:21.185Z,10.60
2018-05-23T00:32:55.647Z,10.70
2018-05-23T00:35:30.231Z,10.60
2018-05-23T00:38:04.833Z,10.60
2018-05-23T00:40:39.444Z,10.50
2018-05-23T00:43:14.109Z,10.50
2018-05-23T00:45:48.652Z,10.50
2018-05-23T00:48:23.145Z,10.50
2018-05-23T00:50:57.677Z,10.50
2018-05-23T00:53:33.058Z,10.40
2018-05-23T00:56:07.479Z,10.40
2018-05-23T00:58:41.914Z,10.30
2018-05-23T01:01:16.461Z,10.30
2018-05-23T01:03:51.798Z,10.30
2018-05-23T01:06:26.505Z,10.20
2018-05-23T01:09:01.093Z,10.30
2018-05-23T01:11:35.667Z,10.40
2018-05-23T01:14:10.179Z,10.30
2018-05-23T01:16:44.817Z,10.30
2018-05-23T01:19:19.354Z,10.40
2018-05-23T01:21:53.870Z,10.30
2018-05-23T01:24:28.466Z,10.20
2018-05-23T01:27:02.851Z,10.20
2018-05-23T01:29:37.425Z,10.10
2018-05-23T01:32:11.994Z,10.10
2018-05-23T01:34:46.506Z,10.10
2018-05-23T01:37:21.106Z,10.10
2018-05-23T01:39:55.814Z,10.00
2018-05-23T01:42:30.358Z,9.90
2018-05-23T01:45:04.949Z,9.90
2018-05-23T01:47:39.541Z,9.80
2018-05-23T01:50:14.107Z,9.80
2018-05-23T01:52:48.690Z,9.70
2018-05-23T01:55:23.246Z,9.60
2018-05-23T01:57:57.863Z,9.70
2018-05-23T02:00:32.304Z,9.70
2018-05-23T02:03:07.586Z,9.70
2018-05-23T02:05:42.880Z,9.70
2018-05-23T02:08:17.425Z,9.60
2018-05-23T02:10:51.965Z,9.70
2018-05-23T02:13:26.615Z,9.60
2018-05-23T02:16:01.177Z,9.60
2018-05-23T02:18:35.739Z,9.50
2018-05-23T02:21:10.377Z,9.50
2018-05-23T02:23:45.055Z,9.40
2018-05-23T02:26:19.493Z,9.40
2018-05-23T02:28:54.115Z,9.50
2018-05-23T02:31:28.688Z,9.50
2018-05-23T02:34:03.175Z,9.60
2018-05-23T02:36:37.663Z,9.60
2018-05-23T02:39:12.235Z,9.50
2018-05-23T02:41:47.538Z,9.40
2018-05-23T02:44:22.887Z,9.30
2018-05-23T02:46:58.224Z,9.30
2018-05-23T02:49:32.874Z,9.30
2018-05-23T02:52:07.467Z,9.20
2018-05-23T02:54:42.062Z,9.20
2018-05-23T02:57:16.642Z,9.20
2018-05-23T02:59:51.339Z,9.30
2018-05-23T03:02:25.782Z,9.30
2018-05-23T03:05:00.399Z,9.30
2018-05-23T03:07:35.062Z,9.30
2018-05-23T03:10:09.739Z,9.40
2018-05-23T03:12:44.181Z,9.40
2018-05-23T03:15:19.537Z,9.40
2018-05-23T03:17:54.186Z,9.40
2018-05-23T03:20:28.806Z,9.40
2018-05-23T03:23:03.366Z,9.40
2018-05-23T03:25:37.943Z,9.40
2018-05-23T03:28:12.539Z,9.40
2018-05-23T03:30:47.122Z,9.40
2018-05-23T03:33:23.226Z,9.50
2018-05-23T03:35:57.814Z,9.50
2018-05-23T03:38:32.274Z,9.50
2018-05-23T03:41:06.926Z,9.60
2018-05-23T03:43:41.415Z,9.60
2018-05-23T03:46:15.950Z,9.60
2018-05-23T03:48:51.297Z,9.80
2018-05-23T03:51:26.631Z,9.90
2018-05-23T03:54:01.205Z,9.80
2018-05-23T03:56:35.794Z,9.90
2018-05-23T03:59:10.482Z,10.00
2018-05-23T04:01:57.257Z,10.10
2018-05-23T04:04:43.882Z,10.20
2018-05-23T04:07:31.066Z,10.20
2018-05-23T04:10:05.550Z,10.40
2018-05-23T04:12:40.934Z,10.60
2018-05-23T04:15:16.252Z,10.70
2018-05-23T04:17:50.711Z,10.70
2018-05-23T04:20:25.272Z,10.70
2018-05-23T04:23:00.551Z,11.00
2018-05-23T04:25:36.698Z,11.00
2018-05-23T04:28:11.393Z,11.00
2018-05-23T04:30:45.939Z,11.20
2018-05-23T04:33:20.583Z,11.30
2018-05-23T04:35:55.178Z,11.50
2018-05-23T04:38:29.695Z,11.60
2018-05-23T04:41:04.237Z,11.70
2018-05-23T04:43:38.798Z,11.80
2018-05-23T04:46:13.266Z,11.90
2018-05-23T04:48:47.872Z,12.00
2018-05-23T04:51:22.346Z,12.10
2018-05-23T04:53:56.867Z,12.20
2018-05-23T04:56:31.538Z,12.30
2018-05-23T04:59:06.741Z,12.50
2018-05-23T05:01:41.248Z,12.50
2018-05-23T05:04:15.863Z,12.70
2018-05-23T05:06:51.275Z,13.20
2018-05-23T05:09:25.734Z,13.20
2018-05-23T05:12:00.220Z,13.80
2018-05-23T05:14:34.692Z,14.20
2018-05-23T05:17:09.194Z,14.20
2018-05-23T05:19:43.890Z,14.50
2018-05-23T05:22:18.306Z,15.10
2018-05-23T05:24:52.976Z,15.90
2018-05-23T05:27:27.299Z,16.60
2018-05-23T05:30:01.827Z,16.90
2018-05-23T05:32:36.324Z,17.10
2018-05-23T05:35:10.991Z,17.40
2018-05-23T05:37:45.429Z,17.70
2018-05-23T05:40:20.062Z,17.90
2018-05-23T05:42:54.608Z,18.10
2018-05-23T05:45:29.244Z,18.30
2018-05-23T05:48:03.791Z,18.50
2018-05-23T05:50:39.087Z,19.00
2018-05-23T05:53:15.142Z,19.10
2018-05-23T05:55:49.726Z,19.20
2018-05-23T05:58:24.337Z,19.30
2018-05-23T06:00:58.929Z,19.40
2018-05-23T06:03:33.472Z,19.50
2018-05-23T06:06:08.119Z,19.50
2018-05-23T06:08:42.579Z,19.70
2018-05-23T06:11:17.179Z,19.70
2018-05-23T06:13:51.806Z,20.00
2018-05-23T06:16:26.545Z,20.00
2018-05-23T06:19:01.174Z,20.10
2018-05-23T06:21:46.357Z,20.20
2018-05-23T06:24:33.180Z,20.30
2018-05-23T06:27:09.570Z,20.20
2018-05-23T06:29:44.268Z,20.30
2018-05-23T06:32:18.670Z,20.60
2018-05-23T06:34:53.212Z,20.60
2018-05-23T06:37:27.664Z,20.80
2018-05-23T06:40:03.796Z,20.20
2018-05-23T06:42:38.235Z,20.20
2018-05-23T06:45:12.789Z,20.20
2018-05-23T06:47:47.425Z,20.20
2018-05-23T06:50:21.995Z,19.80
2018-05-23T06:52:56.555Z,19.70
2018-05-23T06:55:31.888Z,19.50
2018-05-23T06:58:07.949Z,19.60
2018-05-23T07:00:42.574Z,19.60
2018-05-23T07:03:17.247Z,19.60
2018-05-23T07:05:51.680Z,19.60
2018-05-23T07:08:26.279Z,19.60
2018-05-23T07:11:00.862Z,19.70
2018-05-23T07:13:35.450Z,19.50
2018-05-23T07:16:10.078Z,19.60
2018-05-23T07:18:44.534Z,19.60
2018-05-23T07:21:19.130Z,19.40
2018-05-23T07:23:53.709Z,19.50
2018-05-23T07:26:28.330Z,19.60
2018-05-23T07:29:02.930Z,19.70
2018-05-23T07:31:37.582Z,19.70
2018-05-23T07:34:12.073Z,19.80
2018-05-23T07:36:46.487Z,19.80
2018-05-23T07:39:21.042Z,19.90
2018-05-23T07:41:55.631Z,20.00
2018-05-23T07:44:30.211Z,20.00
2018-05-23T07:47:04.757Z,19.90
2018-05-23T07:49:39.359Z,19.90
2018-05-23T07:52:13.795Z,19.90
2018-05-23T07:54:48.387Z,19.90
2018-05-23T07:57:22.979Z,19.90
2018-05-23T07:59:57.395Z,20.10
2018-05-23T08:02:32.030Z,20.10
2018-05-23T08:05:06.575Z,20.10
2018-05-23T08:07:41.070Z,20.00
2018-05-23T08:10:15.711Z,19.90
2018-05-23T08:12:50.298Z,19.80
2018-05-23T08:15:24.855Z,19.80
2018-05-23T08:17:59.505Z,20.00
2018-05-23T08:20:34.725Z,20.00
2018-05-23T08:23:09.141Z,20.00
2018-05-23T08:25:43.662Z,20.10
2018-05-23T08:28:18.975Z,20.00
2018-05-23T08:30:53.447Z,19.90
2018-05-23T08:33:28.014Z,20.20
2018-05-23T08:36:02.605Z,20.50
2018-05-23T08:38:37.069Z,20.20
2018-05-23T08:41:11.594Z,20.30
2018-05-23T08:43:46.143Z,20.40
2018-05-23T08:46:20.759Z,20.50
2018-05-23T08:48:55.289Z,20.60
2018-05-23T08:51:29.758Z,20.50
2018-05-23T08:54:04.322Z,20.70
2018-05-23T08:56:38.891Z,20.80
2018-05-23T08:59:13.556Z,20.90
2018-05-23T09:01:48.068Z,20.80
2018-05-23T09:04:22.489Z,21.00
2018-05-23T09:06:57.116Z,21.10
2018-05-23T09:09:31.657Z,21.20
2018-05-23T09:12:06.300Z,21.10
2018-05-23T09:14:40.890Z,21.30
2018-05-23T09:17:15.483Z,21.20
2018-05-23T09:19:50.069Z,21.20
2018-05-23T09:22:24.601Z,21.30
2018-05-23T09:25:00.641Z,21.00
2018-05-23T09:27:35.250Z,21.00
2018-05-23T09:30:09.775Z,21.10
2018-05-23T09:32:44.365Z,21.50
2018-05-23T09:35:18.936Z,21.50
2018-05-23T09:37:53.458Z,21.50
2018-05-23T09:40:28.794Z,21.60
2018-05-23T09:43:03.435Z,21.60
2018-05-23T09:45:38.051Z,21.80
2018-05-23T09:48:12.763Z,21.80
2018-05-23T09:50:47.282Z,21.90
2018-05-23T09:53:21.910Z,22.00
2018-05-23T09:55:56.442Z,22.30
2018-05-23T09:58:31.118Z,22.20
2018-05-23T10:01:06.410Z,22.10
2018-05-23T10:03:40.942Z,22.10
2018-05-23T10:06:16.280Z,22.30
2018-05-23T10:08:52.246Z,22.30
2018-05-23T10:11:26.742Z,22.20
2018-05-23T10:14:02.869Z,22.80
2018-05-23T10:16:37.402Z,22.80
2018-05-23T10:19:11.866Z,23.40
2018-05-23T10:21:46.370Z,23.60
2018-05-23T10:24:21.020Z,23.90
2018-05-23T10:26:55.453Z,24.20
2018-05-23T10:29:30.076Z,23.40
2018-05-23T10:32:04.861Z,23.30
2018-05-23T10:34:39.549Z,23.30
2018-05-23T10:37:14.145Z,23.50
2018-05-23T10:39:49.185Z,23.60
2018-05-23T10:42:23.659Z,23.70
2018-05-23T10:44:58.262Z,23.70
2018-05-23T10:47:32.764Z,23.60
2018-05-23T10:50:07.398Z,23.80
2018-05-23T10:52:41.979Z,24.10
2018-05-23T10:55:16.512Z,24.20
2018-05-23T10:57:50.981Z,24.10
2018-05-23T11:00:25.557Z,24.20
2018-05-23T11:03:00.069Z,24.70
2018-05-23T11:05:34.664Z,25.20
2018-05-23T11:08:09.852Z,25.00
2018-05-23T11:10:44.496Z,25.00
2018-05-23T11:13:19.095Z,25.20
2018-05-23T11:15:54.373Z,24.70
2018-05-23T11:18:29.041Z,24.70
2018-05-23T11:21:03.514Z,24.70
2018-05-23T11:23:37.948Z,24.80
2018-05-23T11:26:12.542Z,25.10
2018-05-23T11:28:47.130Z,24.90
2018-05-23T11:31:21.672Z,24.80
2018-05-23T11:33:56.170Z,25.20
2018-05-23T11:36:30.757Z,25.40
2018-05-23T11:39:05.330Z,25.30
2018-05-23T11:41:39.840Z,25.50
2018-05-23T11:44:14.397Z,25.60
2018-05-23T11:46:49.042Z,25.40
2018-05-23T11:49:23.570Z,25.60
2018-05-23T11:51:58.161Z,25.90
2018-05-23T11:54:32.878Z,26.00
2018-05-23T11:57:07.317Z,25.90
2018-05-23T11:59:41.911Z,25.90
2018-05-23T12:02:16.469Z,26.20
2018-05-23T12:04:51.018Z,26.40
2018-05-23T12:07:25.592Z,26.80
2018-05-23T12:10:00.148Z,26.50
2018-05-23T12:12:34.703Z,26.30
2018-05-23T12:15:09.297Z,26.60
2018-05-23T12:17:44.530Z,26.40
2018-05-23T12:20:19.147Z,26.40
2018-05-23T12:22:53.826Z,26.50
2018-05-23T12:25:28.381Z,26.90
2018-05-23T12:28:02.811Z,27.10
2018-05-23T12:30:37.518Z,26.50
2018-05-23T12:33:13.615Z,26.40
2018-05-23T12:35:48.142Z,26.40
2018-05-23T12:38:22.768Z,27.20
2018-05-23T12:40:57.342Z,27.30
2018-05-23T12:43:31.946Z,27.40
2018-05-23T12:46:06.331Z,27.50
2018-05-23T12:48:40.942Z,27.90
2018-05-23T12:51:16.283Z,27.30
2018-05-23T12:53:51.627Z,27.80
2018-05-23T12:56:26.278Z,27.80
2018-05-23T12:59:01.582Z,27.40
2018-05-23T13:01:36.003Z,27.40
2018-05-23T13:04:10.682Z,27.40
2018-05-23T13:06:45.238Z,27.50
2018-05-23T13:09:19.832Z,27.70
2018-05-23T13:11:54.434Z,27.50
2018-05-23T13:14:29.051Z,27.60
2018-05-23T13:17:03.577Z,27.40
2018-05-23T13:19:38.082Z,26.90
2018-05-23T13:22:13.305Z,27.10
2018-05-23T13:24:48.674Z,27.10
2018-05-23T13:27:23.087Z,27.10
2018-05-23T13:29:57.722Z,27.60
2018-05-23T13:32:32.323Z,26.80
2018-05-23T13:35:07.009Z,27.20
2018-05-23T13:37:42.377Z,26.80
2018-05-23T13:40:17.014Z,26.80
2018-05-23T13:42:51.585Z,26.50
2018-05-23T13:45:26.355Z,26.60
2018-05-23T13:48:00.898Z,26.10
2018-05-23T13:50:35.442Z,25.60
2018-05-23T13:53:10.009Z,24.90
2018-05-23T13:55:44.590Z,24.70
2018-05-23T13:58:19.043Z,24.50
2018-05-23T14:00:53.684Z,24.00
2018-05-23T14:03:28.231Z,23.90
2018-05-23T14:06:02.821Z,23.50
2018-05-23T14:08:37.417Z,23.60
2018-05-23T14:11:12.063Z,23.40
2018-05-23T14:13:46.606Z,23.30
2018-05-23T14:16:21.277Z,23.20
2018-05-23T14:18:55.913Z,23.20
2018-05-23T14:21:30.501Z,23.10
2018-05-23T14:24:05.037Z,23.10
2018-05-23T14:26:39.702Z,23.00
2018-05-23T14:29:14.272Z,22.80
2018-05-23T14:31:48.850Z,22.70
2018-05-23T14:34:23.430Z,22.70
2018-05-23T14:36:58.027Z,22.70
2018-05-23T14:39:32.593Z,22.60
2018-05-23T14:42:07.165Z,22.60
2018-05-23T14:44:41.690Z,22.70
2018-05-23T14:47:17.038Z,22.60
2018-05-23T14:49:52.395Z,22.50
2018-05-23T14:52:26.835Z,22.50
2018-05-23T14:55:02.244Z,22.50
2018-05-23T14:57:37.015Z,22.50
2018-05-23T15:00:12.226Z,22.50
2018-05-23T15:02:46.730Z,22.40
2018-05-23T15:05:21.286Z,22.50
2018-05-23T15:07:55.951Z,22.50
2018-05-23T15:10:30.557Z,22.50
2018-05-23T15:13:05.918Z,22.40
2018-05-23T15:15:40.518Z,22.40
2018-05-23T15:18:15.213Z,22.40
2018-05-23T15:20:49.647Z,22.20
2018-05-23T15:23:24.219Z,22.20
2018-05-23T15:25:59.630Z,22.10
2018-05-23T15:28:35.805Z,22.10
2018-05-23T15:31:10.386Z,22.00
2018-05-23T15:33:44.880Z,22.10
2018-05-23T15:36:19.414Z,22.10
2018-05-23T15:38:54.007Z,22.10
2018-05-23T15:41:29.326Z,22.00
2018-05-23T15:44:03.873Z,22.00
2018-05-23T15:46:38.443Z,22.00
2018-05-23T15:49:13.057Z,22.10
2018-05-23T15:51:47.629Z,22.00
2018-05-23T15:54:22.253Z,22.10
2018-05-23T15:56:56.784Z,22.10
2018-05-23T15:59:32.122Z,22.00
2018-05-23T16:02:06.749Z,22.00
2018-05-23T16:04:41.199Z,21.90
2018-05-23T16:07:15.767Z,21.90
2018-05-23T16:09:50.292Z,21.70
2018-05-23T16:12:25.629Z,21.60
2018-05-23T16:15:00.078Z,21.60
2018-05-23T16:17:34.649Z,21.60
2018-05-23T16:20:09.241Z,21.60
2018-05-23T16:22:43.821Z,21.60
2018-05-23T16:25:18.406Z,21.70
2018-05-23T16:27:53.124Z,21.70
2018-05-23T16:30:27.710Z,21.60
2018-05-23T16:33:03.032Z,21.60
2018-05-23T16:35:37.481Z,21.50
2018-05-23T16:38:12.171Z,21.50
2018-05-23T16:40:47.562Z,21.50
2018-05-23T16:43:22.894Z,21.50
2018-05-23T16:45:57.469Z,21.50
2018-05-23T16:48:32.037Z,21.50
2018-05-23T16:51:06.631Z,21.40
2018-05-23T16:53:41.022Z,21.40
2018-05-23T16:56:15.491Z,21.40
2018-05-23T16:58:50.027Z,21.30
2018-05-23T17:01:24.650Z,21.30
2018-05-23T17:03:59.289Z,21.30
2018-05-23T17:06:33.945Z,21.30
2018-05-23T17:09:08.317Z,21.40
2018-05-23T17:11:42.905Z,21.30
2018-05-23T17:14:17.458Z,21.30
2018-05-23T17:16:52.017Z,21.20
2018-05-23T17:19:26.495Z,21.20
2018-05-23T17:22:01.030Z,21.10
2018-05-23T17:24:35.676Z,21.10
2018-05-23T17:27:10.219Z,21.10
2018-05-23T17:29:44.737Z,21.00
2018-05-23T17:32:19.338Z,20.90
2018-05-23T17:34:53.977Z,20.90
2018-05-23T17:37:28.492Z,20.80
2018-05-23T17:40:03.089Z,20.70
2018-05-23T17:42:37.673Z,20.70
2018-05-23T17:45:12.187Z,20.60
2018-05-23T17:47:46.806Z,20.50
2018-05-23T17:50:21.297Z,20.50
2018-05-23T17:52:55.851Z,20.40
2018-05-23T17:55:30.454Z,20.40
2018-05-23T17:58:05.143Z,20.40
2018-05-23T18:00:39.701Z,20.30
2018-05-23T18:03:14.337Z,20.20
2018-05-23T18:05:48.933Z,20.10
2018-05-23T18:08:23.601Z,20.00
2018-05-23T18:10:58.280Z,19.90
2018-05-23T18:13:33.663Z,19.70
2018-05-23T18:16:08.137Z,19.60
2018-05-23T18:18:42.788Z,19.60
2018-05-23T18:21:17.434Z,19.50
2018-05-23T18:23:51.953Z,19.40
2018-05-23T18:26:27.278Z,19.20
2018-05-23T18:29:01.854Z,19.20
2018-05-23T18:31:36.309Z,19.10
2018-05-23T18:34:10.775Z,19.00
2018-05-23T18:36:46.074Z,18.70
2018-05-23T18:39:20.671Z,18.70
2018-05-23T18:41:55.209Z,18.60
2018-05-23T18:44:30.429Z,18.50
2018-05-23T18:47:05.023Z,18.40
2018-05-23T18:49:39.612Z,18.30
2018-05-23T18:52:14.210Z,18.20
2018-05-23T18:54:48.805Z,18.10
2018-05-23T18:57:23.521Z,17.90
2018-05-23T18:59:58.038Z,17.80
2018-05-23T19:02:33.222Z,17.50
2018-05-23T19:05:07.856Z,17.50
2018-05-23T19:07:42.414Z,17.40
2018-05-23T19:10:17.119Z,17.30
2018-05-23T19:12:51.573Z,17.20
2018-05-23T19:15:26.191Z,17.00
2018-05-23T19:18:00.743Z,17.00
2018-05-23T19:20:36.087Z,16.80
2018-05-23T19:23:10.659Z,16.70
2018-05-23T19:25:45.161Z,16.60
2018-05-23T19:28:19.758Z,16.50
2018-05-23T19:30:54.354Z,16.40
2018-05-23T19:33:28.766Z,16.30
2018-05-23T19:36:04.230Z,16.20
2018-05-23T19:38:38.930Z,16.20
2018-05-23T19:41:13.544Z,16.10
2018-05-23T19:43:47.967Z,15.80
2018-05-23T19:46:22.425Z,15.70
2018-05-23T19:48:56.900Z,15.60
2018-05-23T19:51:31.414Z,15.50
2018-05-23T19:54:05.842Z,15.30
2018-05-23T19:56:40.337Z,15.30
2018-05-23T19:59:14.789Z,15.20
2018-05-23T20:01:49.454Z,15.20
2018-05-23T20:04:24.027Z,15.10
2018-05-23T20:06:58.537Z,15.10
2018-05-23T20:09:33.025Z,15.00
2018-05-23T20:12:07.626Z,14.90
2018-05-23T20:14:42.024Z,14.80
2018-05-23T20:17:16.472Z,14.70
2018-05-23T20:19:50.905Z,14.60
2018-05-23T20:22:25.461Z,14.50
2018-05-23T20:25:00.020Z,14.50
2018-05-23T20:27:34.606Z,14.40
2018-05-23T20:30:09.196Z,14.20
2018-05-23T20:32:43.664Z,14.20
2018-05-23T20:35:18.177Z,14.10
2018-05-23T20:37:52.789Z,14.10
2018-05-23T20:40:27.195Z,14.00
2018-05-23T20:43:01.619Z,13.90
2018-05-23T20:45:36.237Z,13.90
2018-05-23T20:48:10.740Z,13.90
2018-05-23T20:50:45.137Z,13.80
2018-05-23T20:53:19.718Z,13.70
2018-05-23T20:55:54.221Z,13.60
2018-05-23T20:58:28.772Z,13.50
2018-05-23T21:01:04.041Z,13.40
2018-05-23T21:03:38.536Z,13.30
2018-05-23T21:06:13.076Z,13.30
2018-05-23T21:08:47.574Z,13.40
2018-05-23T21:11:22.139Z,13.20
2018-05-23T21:13:56.810Z,13.20
2018-05-23T21:16:31.226Z,13.10
2018-05-23T21:19:05.788Z,13.20
2018-05-23T21:21:40.338Z,13.10
2018-05-23T21:24:14.923Z,13.00
2018-05-23T21:26:50.102Z,12.90
2018-05-23T21:29:25.473Z,12.90
2018-05-23T21:32:00.026Z,12.90
2018-05-23T21:34:34.717Z,12.80
2018-05-23T21:37:09.206Z,12.80
2018-05-23T21:39:43.784Z,12.70
2018-05-23T21:42:18.318Z,12.70
2018-05-23T21:44:52.845Z,12.60
2018-05-23T21:47:27.379Z,12.60
2018-05-23T21:50:01.972Z,12.60
2018-05-23T21:52:36.586Z,12.50
2018-05-23T21:55:11.847Z,12.50
2018-05-23T21:57:46.256Z,12.50
2018-05-23T22:00:20.909Z,12.50
2018-05-23T22:02:55.365Z,12.50
2018-05-23T22:05:29.941Z,12.40
2018-05-23T22:08:04.510Z,12.30
2018-05-23T22:10:39.102Z,12.30
2018-05-23T22:13:13.689Z,12.20
2018-05-23T22:15:48.311Z,12.20
2018-05-23T22:18:22.925Z,12.10
2018-05-23T22:20:57.473Z,12.10
2018-05-23T22:23:32.079Z,12.10
2018-05-23T22:26:06.705Z,12.10
2018-05-23T22:28:41.066Z,12.10
2018-05-23T22:31:15.667Z,12.00
2018-05-23T22:33:50.354Z,12.00
2018-05-23T22:36:24.813Z,12.00
2018-05-23T22:38:59.385Z,11.90
2018-05-23T22:41:34.013Z,12.00
2018-05-23T22:44:08.565Z,11.90
2018-05-23T22:46:43.923Z,11.90
2018-05-23T22:49:18.457Z,11.90
2018-05-23T22:51:53.035Z,11.90
2018-05-23T22:54:27.559Z,11.90
2018-05-23T22:57:02.126Z,11.90
2018-05-23T22:59:36.761Z,11.90
2018-05-23T23:02:11.228Z,11.90
2018-05-23T23:04:45.740Z,11.90
2018-05-23T23:07:20.209Z,11.90
2018-05-23T23:09:54.826Z,12.00
2018-05-23T23:12:29.459Z,12.00
2018-05-23T23:15:04.052Z,11.90
2018-05-23T23:17:38.637Z,11.90
2018-05-23T23:20:13.182Z,11.90
2018-05-23T23:22:47.753Z,11.90
2018-05-23T23:25:22.294Z,11.80
2018-05-23T23:27:56.846Z,11.80
2018-05-23T23:30:31.259Z,11.80
2018-05-23T23:33:05.931Z,11.90
2018-05-23T23:35:40.414Z,12.00
2018-05-23T23:38:15.029Z,11.90
2018-05-23T23:40:49.465Z,11.90
2018-05-23T23:43:24.129Z,11.80
2018-05-23T23:45:58.751Z,11.70
2018-05-23T23:48:33.381Z,11.70
2018-05-23T23:51:08.009Z,11.70
2018-05-23T23:53:42.545Z,11.60
2018-05-23T23:56:17.054Z,11.60
2018-05-23T23:58:52.405Z,11.60
